createdAt,value
2022-10-08T00:01:50.503Z,14.01
2022-10-08T00:32:35.382Z,13.69
2022-10-08T01:17:38.958Z,13.40
2022-10-08T01:20:37.564Z,13.49
2022-10-08T01:27:06.975Z,13.39
2022-10-08T01:47:49.443Z,13.30
2022-10-08T02:11:16.823Z,13.21
2022-10-08T03:08:40.906Z,12.85
2022-10-08T03:18:43.816Z,12.53
2022-10-08T04:29:25.419Z,12.97
2022-10-08T04:44:35.715Z,12.63
2022-10-08T04:47:11.492Z,12.68
2022-10-08T05:18:37.420Z,12.96
2022-10-08T05:23:44.543Z,13.27
2022-10-08T05:35:31.390Z,13.29
2022-10-08T06:10:17.199Z,13.69
2022-10-08T06:17:54.366Z,13.28
2022-10-08T06:34:16.717Z,14.03
2022-10-08T07:24:09.507Z,15.66
2022-10-08T07:27:01.413Z,15.81
2022-10-08T08:48:39.498Z,18.25
2022-10-08T08:51:15.803Z,17.68
2022-10-08T08:53:42.841Z,17.68
2022-10-08T08:56:16.033Z,17.71
2022-10-08T08:59:01.084Z,18.36
2022-10-08T10:04:02.058Z,19.36
2022-10-08T10:06:33.493Z,19.98
2022-10-08T10:38:15.989Z,20.99
2022-10-08T10:40:46.513Z,20.57
2022-10-08T10:43:48.347Z,20.91
2022-10-08T10:46:54.920Z,20.82
2022-10-08T11:00:55.978Z,21.06
2022-10-08T11:04:13.847Z,21.15
2022-10-08T11:16:17.241Z,21.54
2022-10-08T11:31:27.182Z,21.33
2022-10-08T11:33:56.231Z,21.25
2022-10-08T11:36:29.268Z,21.58
2022-10-08T11:39:54.936Z,21.65
2022-10-08T11:42:21.511Z,21.90
2022-10-08T11:44:48.132Z,21.95
2022-10-08T11:47:40.176Z,21.57
2022-10-08T11:58:23.690Z,21.64
2022-10-08T12:00:53.577Z,21.89
2022-10-08T12:09:22.361Z,21.93
2022-10-08T12:56:50.322Z,22.05
2022-10-08T12:59:18.554Z,21.77
2022-10-08T13:10:21.439Z,21.92
2022-10-08T13:13:26.894Z,21.81
2022-10-08T13:16:01.745Z,21.54
2022-10-08T13:41:08.974Z,22.00
2022-10-08T13:43:35.637Z,21.98
2022-10-08T13:46:02.489Z,21.95
2022-10-08T13:48:29.070Z,22.12
2022-10-08T13:50:57.257Z,22.12
2022-10-08T14:00:26.790Z,22.10
2022-10-08T14:02:55.993Z,22.10
2022-10-08T14:05:24.013Z,22.08
2022-10-08T14:08:42.528Z,22.17
2022-10-08T14:11:09.557Z,22.15
2022-10-08T14:14:21.110Z,22.13
2022-10-08T14:16:50.933Z,22.18
2022-10-08T15:01:11.043Z,21.81
2022-10-08T15:07:52.701Z,21.79
2022-10-08T15:10:19.347Z,21.67
2022-10-08T15:12:47.753Z,21.67
2022-10-08T15:15:14.558Z,21.68
2022-10-08T15:17:41.150Z,21.63
2022-10-08T15:44:20.870Z,20.99
2022-10-08T15:47:08.176Z,20.86
2022-10-08T16:23:38.540Z,19.34
2022-10-08T16:51:29.833Z,18.43
2022-10-08T16:53:58.589Z,18.42
2022-10-08T16:56:28.159Z,18.39
2022-10-08T16:59:05.209Z,18.41
2022-10-08T17:01:33.026Z,18.25
2022-10-08T17:04:00.391Z,18.10
2022-10-08T17:06:31.212Z,18.00
2022-10-08T17:09:00.386Z,17.94
2022-10-08T17:11:27.061Z,18.00
2022-10-08T17:13:57.877Z,17.79
2022-10-08T17:16:26.684Z,17.65
2022-10-08T17:19:01.575Z,17.58
2022-10-08T17:21:29.999Z,17.47
2022-10-08T17:24:04.280Z,17.47
2022-10-08T17:26:32.483Z,17.47
2022-10-08T17:29:17.975Z,17.53
2022-10-08T17:31:44.579Z,17.33
2022-10-08T17:34:11.911Z,17.36
2022-10-08T17:36:46.201Z,17.26
2022-10-08T17:39:15.407Z,17.17
2022-10-08T17:44:24.338Z,17.21
2022-10-08T17:46:52.118Z,17.09
2022-10-08T17:49:20.458Z,16.98
2022-10-08T17:51:47.836Z,16.91
2022-10-08T17:54:18.358Z,16.95
2022-10-08T18:10:54.409Z,16.66
2022-10-08T18:13:24.618Z,16.77
2022-10-08T18:18:48.076Z,16.73
2022-10-08T18:21:16.914Z,16.66
2022-10-08T18:23:46.034Z,16.78
2022-10-08T18:26:27.489Z,16.68
2022-10-08T18:28:56.416Z,16.52
2022-10-08T18:31:42.599Z,16.55
2022-10-08T18:34:30.782Z,16.39
2022-10-08T18:37:02.725Z,16.26
2022-10-08T18:39:29.258Z,16.19
2022-10-08T18:41:55.835Z,16.00
2022-10-08T18:44:24.818Z,16.07
2022-10-08T18:46:53.297Z,16.08
2022-10-08T18:49:28.984Z,16.05
2022-10-08T18:52:02.053Z,16.18
2022-10-08T18:54:29.056Z,16.06
2022-10-08T18:56:56.833Z,16.04
2022-10-08T18:59:23.494Z,15.88
2022-10-08T19:01:50.115Z,15.86
2022-10-08T19:04:21.896Z,15.98
2022-10-08T19:07:01.131Z,16.18
2022-10-08T19:09:52.728Z,16.20
2022-10-08T19:12:19.350Z,16.06
2022-10-08T19:14:47.124Z,16.01
2022-10-08T19:17:13.665Z,15.80
2022-10-08T19:19:40.191Z,15.68
2022-10-08T19:22:06.748Z,15.79
2022-10-08T19:24:35.482Z,15.81
2022-10-08T19:27:04.305Z,15.88
2022-10-08T19:29:33.720Z,15.85
2022-10-08T19:32:00.358Z,15.71
2022-10-08T19:34:28.057Z,15.64
2022-10-08T19:36:55.323Z,15.89
2022-10-08T19:39:24.599Z,16.10
2022-10-08T19:41:51.372Z,16.13
2022-10-08T19:44:18.829Z,16.10
2022-10-08T19:46:46.403Z,16.10
2022-10-08T19:49:13.416Z,16.14
2022-10-08T19:51:40.673Z,16.33
2022-10-08T19:54:08.656Z,16.31
2022-10-08T19:56:35.980Z,16.26
2022-10-08T19:59:02.616Z,16.27
2022-10-08T20:01:32.141Z,16.19
2022-10-08T20:04:00.400Z,16.03
2022-10-08T20:06:29.570Z,16.20
2022-10-08T20:08:58.955Z,15.90
2022-10-08T20:11:28.745Z,15.87
2022-10-08T20:13:55.709Z,15.63
2022-10-08T20:16:25.218Z,15.45
2022-10-08T20:18:59.341Z,15.51
2022-10-08T20:21:27.476Z,15.48
2022-10-08T20:23:54.059Z,15.65
2022-10-08T20:26:21.993Z,15.70
2022-10-08T20:28:51.444Z,15.66
2022-10-08T20:31:24.348Z,15.69
2022-10-08T20:34:00.975Z,15.72
2022-10-08T20:36:28.492Z,15.90
2022-10-08T20:38:55.463Z,15.68
2022-10-08T20:41:25.468Z,15.52
2022-10-08T20:43:56.814Z,15.71
2022-10-08T20:46:23.414Z,15.85
2022-10-08T20:48:49.973Z,16.03
2022-10-08T20:51:20.005Z,15.97
2022-10-08T20:53:48.041Z,15.70
2022-10-08T20:56:15.364Z,15.66
2022-10-08T20:58:42.035Z,15.65
2022-10-08T21:01:18.603Z,15.47
2022-10-08T21:03:46.265Z,15.52
2022-10-08T21:06:19.491Z,15.65
2022-10-08T21:08:48.601Z,15.62
2022-10-08T21:11:17.873Z,15.88
2022-10-08T21:13:45.293Z,15.78
2022-10-08T21:16:14.045Z,15.70
2022-10-08T21:18:41.553Z,15.79
2022-10-08T21:21:11.070Z,15.82
2022-10-08T21:23:38.492Z,15.86
2022-10-08T21:26:16.795Z,15.77
2022-10-08T21:28:46.036Z,15.70
2022-10-08T21:31:13.790Z,15.60
2022-10-08T21:33:42.670Z,15.68
2022-10-08T21:36:12.705Z,15.72
2022-10-08T21:38:39.319Z,15.89
2022-10-08T21:41:37.822Z,15.94
2022-10-08T21:44:29.056Z,15.93
2022-10-08T21:47:00.879Z,15.78
2022-10-08T21:49:27.639Z,15.56
2022-10-08T21:51:54.168Z,15.70
2022-10-08T21:54:20.684Z,15.58
2022-10-08T21:56:47.434Z,15.58
2022-10-08T21:59:16.212Z,15.59
2022-10-08T22:01:50.921Z,15.60
2022-10-08T22:04:20.544Z,15.58
2022-10-08T22:06:53.162Z,15.62
2022-10-08T22:09:22.548Z,15.59
2022-10-08T22:11:50.307Z,15.50
2022-10-08T22:14:17.803Z,15.61
2022-10-08T22:17:28.421Z,15.79
2022-10-08T22:20:07.410Z,15.94
2022-10-08T22:22:33.945Z,16.10
2022-10-08T22:25:00.487Z,16.14
2022-10-08T22:27:27.019Z,16.19
2022-10-08T22:29:53.551Z,16.25
2022-10-08T22:32:20.064Z,16.02
2022-10-08T22:34:46.642Z,16.09
2022-10-08T22:37:13.166Z,15.96
2022-10-08T22:39:39.987Z,15.79
2022-10-08T22:42:06.498Z,15.52
2022-10-08T22:44:33.046Z,15.35
2022-10-08T22:46:59.576Z,15.18
2022-10-08T22:49:26.189Z,15.25
2022-10-08T22:51:58.915Z,15.29
2022-10-08T22:54:25.831Z,15.36
2022-10-08T22:56:52.382Z,15.24
2022-10-08T22:59:19.090Z,15.03
2022-10-08T23:01:45.657Z,15.18
2022-10-08T23:04:12.219Z,15.10
2022-10-08T23:09:53.296Z,15.24
2022-10-08T23:12:19.882Z,15.02
2022-10-08T23:14:46.459Z,14.95
2022-10-08T23:17:13.003Z,15.04
2022-10-08T23:19:39.540Z,14.98
2022-10-08T23:22:06.054Z,15.14
2022-10-08T23:24:44.915Z,15.23
2022-10-08T23:27:11.449Z,15.14
2022-10-08T23:29:37.980Z,15.02
2022-10-08T23:32:04.558Z,15.20
2022-10-08T23:34:31.144Z,15.25
2022-10-08T23:36:57.680Z,15.58
2022-10-08T23:39:24.269Z,15.73
2022-10-08T23:42:03.349Z,15.84
2022-10-08T23:44:42.597Z,15.98
2022-10-08T23:47:09.112Z,16.03
2022-10-08T23:49:35.644Z,16.04
2022-10-08T23:52:02.155Z,16.02
2022-10-08T23:54:28.698Z,15.77
2022-10-08T23:56:55.246Z,15.62
2022-10-08T23:59:36.952Z,15.71
